createdAt,value
2022-09-11T00:04:49.075Z,14.02
2022-09-11T00:09:50.535Z,14.93
2022-09-11T00:14:52.029Z,14.55
2022-09-11T00:19:53.539Z,14.50
2022-09-11T00:24:55.124Z,12.68
2022-09-11T00:29:56.580Z,15.65
2022-09-11T00:34:58.024Z,17.88
2022-09-11T00:39:59.549Z,13.88
2022-09-11T00:45:06.498Z,13.13
2022-09-11T00:50:12.313Z,11.90
2022-09-11T00:55:18.651Z,11.30
2022-09-11T01:00:20.405Z,10.38
2022-09-11T01:05:24.649Z,12.77
2022-09-11T01:10:56.176Z,12.07
2022-09-11T01:16:15.905Z,12.32
2022-09-11T01:21:41.229Z,18.98
2022-09-11T01:27:15.718Z,17.10
2022-09-11T01:32:17.260Z,15.00
2022-09-11T01:37:31.248Z,16.98
2022-09-11T01:42:35.890Z,10.85
2022-09-11T01:47:38.994Z,16.15
2022-09-11T01:52:45.722Z,12.95
2022-09-11T01:57:58.373Z,14.10
2022-09-11T02:03:07.468Z,10.82
2022-09-11T02:08:16.346Z,12.18
2022-09-11T02:13:36.994Z,11.85
2022-09-11T02:18:47.476Z,10.18
2022-09-11T02:23:49.572Z,11.35
2022-09-11T02:28:52.079Z,17.80
2022-09-11T02:33:53.565Z,11.50
2022-09-11T02:39:21.097Z,12.95
2022-09-11T02:44:37.792Z,13.20
2022-09-11T02:49:53.065Z,11.98
2022-09-11T02:55:41.750Z,12.32
2022-09-11T03:00:43.248Z,17.40
2022-09-11T03:05:44.794Z,17.25
2022-09-11T03:10:46.789Z,13.38
2022-09-11T03:15:48.564Z,15.65
2022-09-11T03:20:50.108Z,15.02
2022-09-11T03:25:51.574Z,15.98
2022-09-11T03:30:53.144Z,13.82
2022-09-11T03:35:54.750Z,13.80
2022-09-11T03:40:56.370Z,13.32
2022-09-11T03:45:57.882Z,22.42
2022-09-11T03:50:59.462Z,14.68
2022-09-11T03:56:01.052Z,15.63
2022-09-11T04:01:08.879Z,15.00
2022-09-11T04:06:10.483Z,14.13
2022-09-11T04:11:14.090Z,14.88
2022-09-11T04:16:19.594Z,18.92
2022-09-11T04:21:21.375Z,17.30
2022-09-11T04:26:26.437Z,18.23
2022-09-11T04:31:28.007Z,15.13
2022-09-11T04:36:29.969Z,15.00
2022-09-11T04:41:31.449Z,14.65
2022-09-11T04:46:33.450Z,14.18
2022-09-11T04:51:36.638Z,16.92
2022-09-11T04:56:38.147Z,16.17
2022-09-11T05:01:40.055Z,22.75
2022-09-11T05:06:42.912Z,16.15
2022-09-11T05:11:44.451Z,17.70
2022-09-11T05:16:46.099Z,17.17
2022-09-11T05:21:48.113Z,18.35
2022-09-11T05:26:50.998Z,17.55
2022-09-11T05:31:53.162Z,14.90
2022-09-11T05:36:57.353Z,36.38
2022-09-11T05:41:58.897Z,17.98
2022-09-11T05:47:00.372Z,18.15
2022-09-11T05:52:01.979Z,16.23
2022-09-11T05:57:07.368Z,21.17
2022-09-11T06:02:11.437Z,17.77
2022-09-11T06:07:12.988Z,16.77
2022-09-11T06:12:14.736Z,16.65
2022-09-11T06:17:16.208Z,16.92
2022-09-11T06:22:17.756Z,20.77
2022-09-11T06:27:20.074Z,16.60
2022-09-11T06:32:21.632Z,14.63
2022-09-11T06:37:23.102Z,23.30
2022-09-11T06:42:24.604Z,15.73
2022-09-11T06:47:26.062Z,17.35
2022-09-11T06:52:28.103Z,17.77
2022-09-11T06:57:29.915Z,16.05
2022-09-11T07:02:31.377Z,16.63
2022-09-11T07:07:33.939Z,16.63
2022-09-11T07:12:35.388Z,13.45
2022-09-11T07:17:37.035Z,14.35
2022-09-11T07:22:39.053Z,13.70
2022-09-11T07:27:40.857Z,12.43
2022-09-11T07:32:42.300Z,15.57
2022-09-11T07:37:45.799Z,14.48
2022-09-11T07:42:50.506Z,14.57
2022-09-11T07:47:51.962Z,14.23
2022-09-11T07:52:54.879Z,14.52
2022-09-11T07:57:56.342Z,11.20
2022-09-11T08:02:58.059Z,12.90
2022-09-11T08:07:59.531Z,8.18
2022-09-11T08:13:01.905Z,9.27
2022-09-11T08:18:03.462Z,9.02
2022-09-11T08:23:04.975Z,5.65
2022-09-11T08:28:06.771Z,5.43
2022-09-11T08:33:09.458Z,5.10
2022-09-11T08:38:10.910Z,8.57
2022-09-11T08:43:28.007Z,4.38
2022-09-11T08:48:35.716Z,5.53
2022-09-11T08:53:37.243Z,5.35
2022-09-11T08:58:44.737Z,4.07
2022-09-11T09:03:53.717Z,5.88
2022-09-11T09:09:14.950Z,7.07
2022-09-11T09:14:31.987Z,5.78
2022-09-11T09:26:18.856Z,7.75
2022-09-11T09:31:22.650Z,4.10
2022-09-11T09:36:34.651Z,4.38
2022-09-11T09:41:54.184Z,3.90
2022-09-11T09:46:56.143Z,3.67
2022-09-11T09:52:04.051Z,4.38
2022-09-11T09:57:10.379Z,7.18
2022-09-11T10:02:12.244Z,4.88
2022-09-11T10:07:21.710Z,8.18
2022-09-11T10:12:26.659Z,6.43
2022-09-11T10:17:29.164Z,4.20
2022-09-11T10:22:32.310Z,3.97
2022-09-11T10:27:44.576Z,9.07
2022-09-11T10:32:46.223Z,4.78
2022-09-11T10:38:10.607Z,6.47
2022-09-11T10:43:25.424Z,7.25
2022-09-11T10:48:26.884Z,4.82
2022-09-11T10:53:30.050Z,5.40
2022-09-11T10:58:41.774Z,4.30
2022-09-11T11:03:43.248Z,5.32
2022-09-11T11:09:09.862Z,3.30
2022-09-11T11:14:37.849Z,3.83
2022-09-11T11:19:53.444Z,3.45
2022-09-11T11:24:57.491Z,5.78
2022-09-11T11:30:17.242Z,2.60
2022-09-11T11:35:22.827Z,4.57
2022-09-11T11:40:32.087Z,5.80
2022-09-11T11:45:52.727Z,5.18
2022-09-11T11:50:58.349Z,5.30
2022-09-11T11:56:33.266Z,4.88
2022-09-11T12:01:40.909Z,3.33
2022-09-11T12:06:42.707Z,5.93
2022-09-11T12:11:49.008Z,3.97
2022-09-11T12:16:52.126Z,2.75
2022-09-11T12:21:53.542Z,3.30
2022-09-11T12:27:36.098Z,2.83
2022-09-11T12:33:02.375Z,3.92
2022-09-11T12:38:06.739Z,3.00
2022-09-11T12:43:29.302Z,2.95
2022-09-11T12:48:41.776Z,3.13
2022-09-11T12:53:47.052Z,2.55
2022-09-11T12:58:58.926Z,2.75
2022-09-11T13:04:15.385Z,5.07
2022-09-11T13:09:19.510Z,3.83
2022-09-11T13:14:29.961Z,4.57
2022-09-11T13:19:32.830Z,3.58
2022-09-11T13:24:34.883Z,1.75
2022-09-11T13:29:40.033Z,3.85
2022-09-11T13:34:53.766Z,2.60
2022-09-11T13:39:55.283Z,3.60
2022-09-11T13:44:59.487Z,3.03
2022-09-11T13:50:04.677Z,3.70
2022-09-11T13:55:20.449Z,2.65
2022-09-11T14:00:48.807Z,4.45
2022-09-11T14:05:56.549Z,3.72
2022-09-11T14:11:21.162Z,3.28
2022-09-11T14:16:31.384Z,2.00
2022-09-11T14:21:36.748Z,2.25
2022-09-11T14:26:41.476Z,2.33
2022-09-11T14:31:46.944Z,2.40
2022-09-11T14:36:52.738Z,1.80
2022-09-11T14:41:55.616Z,2.53
2022-09-11T14:46:59.221Z,2.58
2022-09-11T14:52:01.039Z,2.55
2022-09-11T14:57:03.548Z,4.00
2022-09-11T15:02:09.794Z,2.70
2022-09-11T15:07:12.510Z,4.60
2022-09-11T15:12:15.301Z,2.45
2022-09-11T15:17:19.153Z,2.47
2022-09-11T15:22:20.781Z,1.55
2022-09-11T15:27:24.984Z,3.10
2022-09-11T15:32:26.543Z,1.98
2022-09-11T15:37:28.007Z,2.25
2022-09-11T15:42:30.234Z,3.28
2022-09-11T15:47:32.290Z,2.72
2022-09-11T15:52:35.209Z,5.18
2022-09-11T15:57:36.873Z,3.42
2022-09-11T16:02:38.434Z,1.45
2022-09-11T16:07:41.159Z,6.45
2022-09-11T16:12:42.649Z,2.40
2022-09-11T16:17:44.889Z,4.32
2022-09-11T16:22:46.418Z,2.63
2022-09-11T16:27:48.903Z,2.17
2022-09-11T16:32:51.241Z,2.00
2022-09-11T16:37:53.559Z,3.78
2022-09-11T16:42:55.054Z,3.72
2022-09-11T16:47:58.732Z,7.05
2022-09-11T16:53:00.205Z,4.65
2022-09-11T16:58:01.665Z,4.35
2022-09-11T17:03:03.153Z,3.90
2022-09-11T17:08:04.759Z,3.88
2022-09-11T17:13:06.958Z,3.38
2022-09-11T17:18:08.708Z,4.85
2022-09-11T17:23:11.234Z,4.78
2022-09-11T17:28:12.671Z,4.32
2022-09-11T17:33:15.146Z,4.68
2022-09-11T17:38:16.611Z,4.30
2022-09-11T17:43:18.073Z,3.88
2022-09-11T17:48:20.185Z,4.57
2022-09-11T17:53:22.914Z,4.40
2022-09-11T17:58:24.386Z,5.55
2022-09-11T18:03:27.570Z,4.47
2022-09-11T18:08:31.232Z,9.70
2022-09-11T18:13:34.561Z,3.38
2022-09-11T18:18:36.269Z,3.22
2022-09-11T18:23:42.501Z,3.70
2022-09-11T18:28:44.540Z,3.63
2022-09-11T18:33:54.768Z,4.70
2022-09-11T18:39:00.026Z,5.20
2022-09-11T18:44:04.207Z,5.38
2022-09-11T18:49:06.719Z,5.78
2022-09-11T18:54:15.666Z,8.23
2022-09-11T18:59:18.016Z,6.10
2022-09-11T19:04:20.241Z,4.72
2022-09-11T19:09:21.813Z,5.80
2022-09-11T19:14:23.902Z,9.60
2022-09-11T19:19:26.015Z,8.32
2022-09-11T19:24:29.986Z,6.15
2022-09-11T19:29:31.450Z,7.88
2022-09-11T19:34:36.118Z,6.35
2022-09-11T19:44:42.107Z,5.80
2022-09-11T19:49:43.998Z,6.88
2022-09-11T19:54:45.514Z,6.53
2022-09-11T19:59:47.015Z,8.13
2022-09-11T20:04:48.533Z,7.32
2022-09-11T20:09:50.134Z,6.18
2022-09-11T20:14:51.631Z,6.50
2022-09-11T20:19:53.126Z,7.60
2022-09-11T20:24:54.595Z,10.80
2022-09-11T20:29:57.213Z,7.88
2022-09-11T20:35:00.399Z,9.07
2022-09-11T20:40:03.894Z,8.77
2022-09-11T20:45:05.876Z,8.07
2022-09-11T20:50:08.762Z,10.52
2022-09-11T20:55:10.301Z,6.90
2022-09-11T21:00:12.564Z,8.23
2022-09-11T21:05:14.044Z,7.55
2022-09-11T21:10:15.632Z,6.47
2022-09-11T21:15:17.189Z,10.98
2022-09-11T21:20:18.755Z,11.50
2022-09-11T21:25:20.217Z,15.43
2022-09-11T21:30:21.737Z,8.60
2022-09-11T21:35:23.243Z,5.10
2022-09-11T21:40:24.802Z,4.97
2022-09-11T21:45:26.312Z,9.38
2022-09-11T21:50:27.804Z,5.03
2022-09-11T21:55:29.278Z,8.07
2022-09-11T22:00:30.974Z,8.88
2022-09-11T22:05:32.575Z,6.00
2022-09-11T22:10:34.089Z,8.10
2022-09-11T22:15:39.570Z,7.88
2022-09-11T22:20:41.680Z,4.22
2022-09-11T22:25:44.276Z,4.35
2022-09-11T22:30:45.730Z,5.20
2022-09-11T22:35:49.502Z,4.45
2022-09-11T22:40:53.494Z,4.97
2022-09-11T22:45:55.069Z,6.45
2022-09-11T22:50:57.562Z,5.78
2022-09-11T22:55:59.205Z,5.95
2022-09-11T23:01:03.469Z,7.57
2022-09-11T23:06:23.741Z,6.88
2022-09-11T23:11:26.814Z,4.20
2022-09-11T23:16:29.514Z,6.18
2022-09-11T23:21:33.369Z,7.68
2022-09-11T23:26:34.853Z,6.15
2022-09-11T23:31:37.662Z,7.88
2022-09-11T23:36:39.194Z,7.32
2022-09-11T23:41:40.661Z,4.55
2022-09-11T23:46:42.223Z,4.95
2022-09-11T23:51:43.728Z,9.25
2022-09-11T23:56:45.190Z,6.28
